Terminal Aerodrome Forecast
Issued by NWS

Home | Current Version | Previous Version | Text Only | Print | Product List | Glossary On
Versions: 1 2 3 4 5 6 7 8 9 10 11 12 13 14 15 16 17 18 19 20
074
FTUS41 KPHI 052204 AAA
TAFMIV
TAF AMD
KMIV 052204Z 0522/0618 30010G18KT P6SM FEW060
     FM060000 31008KT P6SM FEW060
     FM060200 28003KT P6SM SKC
     FM061500 24007KT P6SM SCT200=

USA.gov is the U.S. government's official web portal to all federal, state and local government web resources and services.